sensor_id;sensor_type;location;lat;lon;timestamp;P1;durP1;ratioP1;P2;durP2;ratioP2
32399;SDS011;45045;45.440;9.178;2022-09-09T00:01:10;13.13;;;10.05;;
32399;SDS011;45045;45.440;9.178;2022-09-09T00:04:15;13.88;;;9.57;;
32399;SDS011;45045;45.440;9.178;2022-09-09T00:09:42;15.70;;;10.50;;
32399;SDS011;45045;45.440;9.178;2022-09-09T00:14:55;13.45;;;9.93;;
32399;SDS011;45045;45.440;9.178;2022-09-09T00:22:38;14.88;;;10.25;;
32399;SDS011;45045;45.440;9.178;2022-09-09T00:25:23;15.80;;;10.93;;
32399;SDS011;45045;45.440;9.178;2022-09-09T00:27:59;12.70;;;10.35;;
32399;SDS011;45045;45.440;9.178;2022-09-09T00:30:26;16.17;;;11.18;;
32399;SDS011;45045;45.440;9.178;2022-09-09T00:32:59;12.55;;;10.75;;
32399;SDS011;45045;45.440;9.178;2022-09-09T00:35:30;14.93;;;10.35;;
32399;SDS011;45045;45.440;9.178;2022-09-09T00:38:03;17.63;;;10.40;;
32399;SDS011;45045;45.440;9.178;2022-09-09T00:40:56;16.75;;;9.88;;
32399;SDS011;45045;45.440;9.178;2022-09-09T00:43:31;15.02;;;11.60;;
32399;SDS011;45045;45.440;9.178;2022-09-09T00:51:38;15.80;;;11.60;;
32399;SDS011;45045;45.440;9.178;2022-09-09T00:54:54;15.50;;;11.10;;
32399;SDS011;45045;45.440;9.178;2022-09-09T00:57:14;14.88;;;11.63;;
32399;SDS011;45045;45.440;9.178;2022-09-09T01:00:14;14.00;;;11.23;;
32399;SDS011;45045;45.440;9.178;2022-09-09T01:11:04;13.70;;;11.52;;
32399;SDS011;45045;45.440;9.178;2022-09-09T01:13:35;17.08;;;11.27;;
32399;SDS011;45045;45.440;9.178;2022-09-09T01:16:04;15.45;;;11.88;;
32399;SDS011;45045;45.440;9.178;2022-09-09T01:18:40;17.30;;;11.93;;
32399;SDS011;45045;45.440;9.178;2022-09-09T01:21:16;15.20;;;12.38;;
32399;SDS011;45045;45.440;9.178;2022-09-09T01:26:45;18.90;;;13.23;;
32399;SDS011;45045;45.440;9.178;2022-09-09T01:29:12;22.30;;;13.52;;
32399;SDS011;45045;45.440;9.178;2022-09-09T01:34:21;17.20;;;12.95;;
32399;SDS011;45045;45.440;9.178;2022-09-09T01:36:57;18.00;;;13.05;;
32399;SDS011;45045;45.440;9.178;2022-09-09T01:39:26;16.50;;;13.10;;
32399;SDS011;45045;45.440;9.178;2022-09-09T01:41:52;17.30;;;13.50;;
32399;SDS011;45045;45.440;9.178;2022-09-09T01:44:19;16.38;;;12.48;;
32399;SDS011;45045;45.440;9.178;2022-09-09T01:46:45;19.52;;;14.32;;
32399;SDS011;45045;45.440;9.178;2022-09-09T01:49:11;17.70;;;13.23;;
32399;SDS011;45045;45.440;9.178;2022-09-09T01:51:37;21.63;;;13.85;;
32399;SDS011;45045;45.440;9.178;2022-09-09T01:54:05;17.48;;;12.77;;
32399;SDS011;45045;45.440;9.178;2022-09-09T02:04:43;15.90;;;13.65;;
32399;SDS011;45045;45.440;9.178;2022-09-09T02:07:18;20.38;;;14.10;;
32399;SDS011;45045;45.440;9.178;2022-09-09T02:12:48;19.60;;;14.18;;
32399;SDS011;45045;45.440;9.178;2022-09-09T02:15:26;17.83;;;13.80;;
32399;SDS011;45045;45.440;9.178;2022-09-09T02:17:57;20.70;;;14.48;;
32399;SDS011;45045;45.440;9.178;2022-09-09T02:20:26;18.13;;;14.70;;
32399;SDS011;45045;45.440;9.178;2022-09-09T02:22:57;20.27;;;14.43;;
32399;SDS011;45045;45.440;9.178;2022-09-09T02:25:24;20.00;;;14.95;;
32399;SDS011;45045;45.440;9.178;2022-09-09T02:27:53;21.10;;;15.35;;
32399;SDS011;45045;45.440;9.178;2022-09-09T02:30:19;21.98;;;15.88;;
32399;SDS011;45045;45.440;9.178;2022-09-09T02:32:45;21.48;;;15.85;;
32399;SDS011;45045;45.440;9.178;2022-09-09T02:35:14;19.05;;;14.82;;
32399;SDS011;45045;45.440;9.178;2022-09-09T02:37:42;23.88;;;15.90;;
32399;SDS011;45045;45.440;9.178;2022-09-09T02:40:13;18.55;;;15.43;;
32399;SDS011;45045;45.440;9.178;2022-09-09T02:42:43;19.58;;;15.93;;
32399;SDS011;45045;45.440;9.178;2022-09-09T02:45:12;22.58;;;15.43;;
32399;SDS011;45045;45.440;9.178;2022-09-09T02:48:14;19.88;;;16.20;;
32399;SDS011;45045;45.440;9.178;2022-09-09T02:50:39;19.48;;;16.02;;
32399;SDS011;45045;45.440;9.178;2022-09-09T02:53:32;22.73;;;18.48;;
32399;SDS011;45045;45.440;9.178;2022-09-09T02:56:13;22.38;;;18.20;;
32399;SDS011;45045;45.440;9.178;2022-09-09T02:58:41;23.02;;;17.38;;
32399;SDS011;45045;45.440;9.178;2022-09-09T03:01:07;22.55;;;17.05;;
32399;SDS011;45045;45.440;9.178;2022-09-09T03:03:33;22.50;;;17.92;;
32399;SDS011;45045;45.440;9.178;2022-09-09T03:05:59;24.52;;;18.80;;
32399;SDS011;45045;45.440;9.178;2022-09-09T03:08:25;23.83;;;18.38;;
32399;SDS011;45045;45.440;9.178;2022-09-09T03:10:52;25.33;;;17.92;;
32399;SDS011;45045;45.440;9.178;2022-09-09T03:13:19;23.13;;;17.45;;
32399;SDS011;45045;45.440;9.178;2022-09-09T03:15:44;21.55;;;18.27;;
32399;SDS011;45045;45.440;9.178;2022-09-09T03:18:10;26.48;;;18.73;;
32399;SDS011;45045;45.440;9.178;2022-09-09T03:20:36;23.90;;;18.63;;
32399;SDS011;45045;45.440;9.178;2022-09-09T03:23:02;21.80;;;18.15;;
32399;SDS011;45045;45.440;9.178;2022-09-09T03:25:28;22.85;;;18.27;;
32399;SDS011;45045;45.440;9.178;2022-09-09T03:27:55;20.33;;;17.58;;
32399;SDS011;45045;45.440;9.178;2022-09-09T03:30:25;23.67;;;17.95;;
32399;SDS011;45045;45.440;9.178;2022-09-09T03:32:51;21.10;;;17.00;;
32399;SDS011;45045;45.440;9.178;2022-09-09T03:35:17;23.88;;;17.55;;
32399;SDS011;45045;45.440;9.178;2022-09-09T03:37:44;20.10;;;16.80;;
32399;SDS011;45045;45.440;9.178;2022-09-09T03:40:10;21.38;;;17.92;;
32399;SDS011;45045;45.440;9.178;2022-09-09T03:42:37;21.08;;;17.77;;
32399;SDS011;45045;45.440;9.178;2022-09-09T03:45:06;23.92;;;18.33;;
32399;SDS011;45045;45.440;9.178;2022-09-09T03:47:35;27.50;;;18.48;;
32399;SDS011;45045;45.440;9.178;2022-09-09T03:50:02;22.98;;;17.70;;
32399;SDS011;45045;45.440;9.178;2022-09-09T03:52:29;21.80;;;18.10;;
32399;SDS011;45045;45.440;9.178;2022-09-09T03:54:55;19.17;;;16.88;;
32399;SDS011;45045;45.440;9.178;2022-09-09T03:57:21;24.95;;;17.30;;
32399;SDS011;45045;45.440;9.178;2022-09-09T03:59:47;23.52;;;17.77;;
32399;SDS011;45045;45.440;9.178;2022-09-09T04:02:13;21.45;;;17.92;;
32399;SDS011;45045;45.440;9.178;2022-09-09T04:04:38;20.70;;;17.63;;
32399;SDS011;45045;45.440;9.178;2022-09-09T04:07:04;21.08;;;17.52;;
32399;SDS011;45045;45.440;9.178;2022-09-09T04:09:31;21.40;;;17.38;;
32399;SDS011;45045;45.440;9.178;2022-09-09T04:11:57;21.38;;;17.30;;
32399;SDS011;45045;45.440;9.178;2022-09-09T04:14:24;23.50;;;16.27;;
32399;SDS011;45045;45.440;9.178;2022-09-09T04:16:53;23.52;;;15.93;;
32399;SDS011;45045;45.440;9.178;2022-09-09T04:19:20;19.98;;;15.43;;
32399;SDS011;45045;45.440;9.178;2022-09-09T04:21:46;23.65;;;16.95;;
32399;SDS011;45045;45.440;9.178;2022-09-09T04:24:14;22.88;;;16.58;;
32399;SDS011;45045;45.440;9.178;2022-09-09T04:26:41;20.55;;;16.63;;
32399;SDS011;45045;45.440;9.178;2022-09-09T04:29:07;21.42;;;16.80;;
32399;SDS011;45045;45.440;9.178;2022-09-09T04:31:32;23.15;;;16.70;;
32399;SDS011;45045;45.440;9.178;2022-09-09T04:33:58;24.05;;;17.88;;
32399;SDS011;45045;45.440;9.178;2022-09-09T04:36:27;21.30;;;16.63;;
32399;SDS011;45045;45.440;9.178;2022-09-09T04:38:53;21.60;;;17.05;;
32399;SDS011;45045;45.440;9.178;2022-09-09T04:41:18;21.70;;;17.25;;
32399;SDS011;45045;45.440;9.178;2022-09-09T04:43:44;23.23;;;17.58;;
32399;SDS011;45045;45.440;9.178;2022-09-09T04:46:10;24.00;;;18.23;;
32399;SDS011;45045;45.440;9.178;2022-09-09T04:53:33;22.38;;;17.23;;
32399;SDS011;45045;45.440;9.178;2022-09-09T04:58:28;22.67;;;16.35;;
32399;SDS011;45045;45.440;9.178;2022-09-09T05:00:54;24.38;;;17.67;;
32399;SDS011;45045;45.440;9.178;2022-09-09T05:03:19;21.50;;;16.83;;
32399;SDS011;45045;45.440;9.178;2022-09-09T05:05:45;23.38;;;18.88;;
32399;SDS011;45045;45.440;9.178;2022-09-09T05:08:11;21.48;;;17.73;;
32399;SDS011;45045;45.440;9.178;2022-09-09T05:10:37;24.00;;;16.83;;
32399;SDS011;45045;45.440;9.178;2022-09-09T05:13:06;21.13;;;16.10;;
32399;SDS011;45045;45.440;9.178;2022-09-09T05:15:32;22.25;;;15.70;;
32399;SDS011;45045;45.440;9.178;2022-09-09T05:17:58;22.38;;;16.17;;
32399;SDS011;45045;45.440;9.178;2022-09-09T05:20:25;23.40;;;17.08;;
32399;SDS011;45045;45.440;9.178;2022-09-09T05:22:54;24.83;;;17.08;;
32399;SDS011;45045;45.440;9.178;2022-09-09T05:25:21;21.17;;;17.38;;
32399;SDS011;45045;45.440;9.178;2022-09-09T05:27:49;20.75;;;16.85;;
32399;SDS011;45045;45.440;9.178;2022-09-09T05:30:15;22.63;;;16.88;;
32399;SDS011;45045;45.440;9.178;2022-09-09T05:32:40;21.80;;;16.30;;
32399;SDS011;45045;45.440;9.178;2022-09-09T05:35:09;22.73;;;16.33;;
32399;SDS011;45045;45.440;9.178;2022-09-09T05:37:35;21.20;;;16.50;;
32399;SDS011;45045;45.440;9.178;2022-09-09T05:40:00;20.17;;;16.27;;
32399;SDS011;45045;45.440;9.178;2022-09-09T05:42:29;21.42;;;15.95;;
32399;SDS011;45045;45.440;9.178;2022-09-09T05:44:55;19.40;;;15.68;;
32399;SDS011;45045;45.440;9.178;2022-09-09T05:47:22;20.25;;;16.02;;
32399;SDS011;45045;45.440;9.178;2022-09-09T05:49:48;21.80;;;16.10;;
32399;SDS011;45045;45.440;9.178;2022-09-09T05:52:14;23.48;;;16.73;;
32399;SDS011;45045;45.440;9.178;2022-09-09T05:54:39;22.27;;;16.08;;
32399;SDS011;45045;45.440;9.178;2022-09-09T05:57:06;21.90;;;17.55;;
32399;SDS011;45045;45.440;9.178;2022-09-09T05:59:32;21.13;;;16.80;;
32399;SDS011;45045;45.440;9.178;2022-09-09T06:01:57;22.35;;;17.67;;
32399;SDS011;45045;45.440;9.178;2022-09-09T06:04:24;21.23;;;15.48;;
32399;SDS011;45045;45.440;9.178;2022-09-09T06:06:49;21.83;;;16.25;;
32399;SDS011;45045;45.440;9.178;2022-09-09T06:09:15;19.40;;;15.85;;
32399;SDS011;45045;45.440;9.178;2022-09-09T06:11:41;18.05;;;14.98;;
32399;SDS011;45045;45.440;9.178;2022-09-09T06:14:07;19.50;;;15.57;;
32399;SDS011;45045;45.440;9.178;2022-09-09T06:16:34;20.10;;;15.90;;
32399;SDS011;45045;45.440;9.178;2022-09-09T06:19:02;23.00;;;16.38;;
32399;SDS011;45045;45.440;9.178;2022-09-09T06:21:32;24.50;;;16.33;;
32399;SDS011;45045;45.440;9.178;2022-09-09T06:24:00;21.23;;;15.60;;
32399;SDS011;45045;45.440;9.178;2022-09-09T06:28:53;24.63;;;15.15;;
32399;SDS011;45045;45.440;9.178;2022-09-09T06:31:20;20.25;;;15.70;;
32399;SDS011;45045;45.440;9.178;2022-09-09T06:33:49;21.50;;;15.02;;
32399;SDS011;45045;45.440;9.178;2022-09-09T06:36:17;23.92;;;16.80;;
32399;SDS011;45045;45.440;9.178;2022-09-09T06:38:45;19.08;;;14.48;;
32399;SDS011;45045;45.440;9.178;2022-09-09T06:41:15;20.40;;;14.77;;
32399;SDS011;45045;45.440;9.178;2022-09-09T06:43:42;19.10;;;13.90;;
32399;SDS011;45045;45.440;9.178;2022-09-09T06:46:12;18.45;;;14.68;;
32399;SDS011;45045;45.440;9.178;2022-09-09T06:48:45;18.27;;;14.35;;
32399;SDS011;45045;45.440;9.178;2022-09-09T06:51:12;19.55;;;14.43;;
32399;SDS011;45045;45.440;9.178;2022-09-09T06:53:43;19.45;;;13.85;;
32399;SDS011;45045;45.440;9.178;2022-09-09T06:58:35;15.90;;;12.80;;
32399;SDS011;45045;45.440;9.178;2022-09-09T07:01:08;16.77;;;11.85;;
32399;SDS011;45045;45.440;9.178;2022-09-09T07:03:34;14.32;;;9.48;;
32399;SDS011;45045;45.440;9.178;2022-09-09T07:06:00;14.95;;;8.43;;
32399;SDS011;45045;45.440;9.178;2022-09-09T07:08:26;10.80;;;6.72;;
32399;SDS011;45045;45.440;9.178;2022-09-09T07:11:01;10.68;;;5.28;;
32399;SDS011;45045;45.440;9.178;2022-09-09T07:13:33;11.15;;;5.78;;
32399;SDS011;45045;45.440;9.178;2022-09-09T07:16:03;9.60;;;5.03;;
32399;SDS011;45045;45.440;9.178;2022-09-09T07:18:36;10.38;;;6.40;;
32399;SDS011;45045;45.440;9.178;2022-09-09T07:21:02;11.95;;;6.25;;
32399;SDS011;45045;45.440;9.178;2022-09-09T07:23:29;11.77;;;6.10;;
32399;SDS011;45045;45.440;9.178;2022-09-09T07:25:58;6.45;;;5.20;;
32399;SDS011;45045;45.440;9.178;2022-09-09T07:28:24;11.20;;;5.57;;
32399;SDS011;45045;45.440;9.178;2022-09-09T07:30:57;7.57;;;4.40;;
32399;SDS011;45045;45.440;9.178;2022-09-09T07:33:26;12.60;;;4.55;;
32399;SDS011;45045;45.440;9.178;2022-09-09T07:36:01;7.70;;;3.78;;
32399;SDS011;45045;45.440;9.178;2022-09-09T07:38:28;8.98;;;4.07;;
32399;SDS011;45045;45.440;9.178;2022-09-09T07:41:02;11.10;;;4.20;;
32399;SDS011;45045;45.440;9.178;2022-09-09T07:43:28;7.03;;;3.70;;
32399;SDS011;45045;45.440;9.178;2022-09-09T07:45:57;7.45;;;3.30;;
32399;SDS011;45045;45.440;9.178;2022-09-09T07:48:25;9.27;;;3.80;;
32399;SDS011;45045;45.440;9.178;2022-09-09T07:50:50;5.07;;;3.10;;
32399;SDS011;45045;45.440;9.178;2022-09-09T07:53:16;5.85;;;3.15;;
32399;SDS011;45045;45.440;9.178;2022-09-09T07:55:44;7.78;;;2.80;;
32399;SDS011;45045;45.440;9.178;2022-09-09T07:58:10;6.80;;;2.50;;
32399;SDS011;45045;45.440;9.178;2022-09-09T08:00:36;7.45;;;2.30;;
32399;SDS011;45045;45.440;9.178;2022-09-09T08:03:01;5.78;;;2.25;;
32399;SDS011;45045;45.440;9.178;2022-09-09T08:05:27;6.80;;;2.60;;
32399;SDS011;45045;45.440;9.178;2022-09-09T08:07:53;7.63;;;2.15;;
32399;SDS011;45045;45.440;9.178;2022-09-09T08:10:19;5.32;;;1.90;;
32399;SDS011;45045;45.440;9.178;2022-09-09T08:12:44;6.32;;;1.63;;
32399;SDS011;45045;45.440;9.178;2022-09-09T08:15:10;6.25;;;1.95;;
32399;SDS011;45045;45.440;9.178;2022-09-09T08:17:36;4.93;;;1.90;;
32399;SDS011;45045;45.440;9.178;2022-09-09T08:20:03;5.90;;;1.60;;
32399;SDS011;45045;45.440;9.178;2022-09-09T08:22:31;6.80;;;2.28;;
32399;SDS011;45045;45.440;9.178;2022-09-09T08:24:57;5.85;;;1.70;;
32399;SDS011;45045;45.440;9.178;2022-09-09T08:27:23;13.20;;;1.85;;
32399;SDS011;45045;45.440;9.178;2022-09-09T08:29:50;4.32;;;1.23;;
32399;SDS011;45045;45.440;9.178;2022-09-09T08:32:18;6.28;;;1.48;;
32399;SDS011;45045;45.440;9.178;2022-09-09T08:34:44;4.30;;;1.17;;
32399;SDS011;45045;45.440;9.178;2022-09-09T08:37:10;4.03;;;1.52;;
32399;SDS011;45045;45.440;9.178;2022-09-09T08:39:35;5.25;;;1.40;;
32399;SDS011;45045;45.440;9.178;2022-09-09T08:42:08;4.78;;;1.58;;
32399;SDS011;45045;45.440;9.178;2022-09-09T08:45:09;6.20;;;1.33;;
32399;SDS011;45045;45.440;9.178;2022-09-09T08:50:30;4.15;;;1.25;;
32399;SDS011;45045;45.440;9.178;2022-09-09T08:53:04;4.22;;;0.98;;
32399;SDS011;45045;45.440;9.178;2022-09-09T08:58:21;3.63;;;1.42;;
32399;SDS011;45045;45.440;9.178;2022-09-09T09:11:50;4.68;;;0.82;;
32399;SDS011;45045;45.440;9.178;2022-09-09T09:14:23;1.92;;;0.80;;
32399;SDS011;45045;45.440;9.178;2022-09-09T09:16:54;3.00;;;0.88;;
32399;SDS011;45045;45.440;9.178;2022-09-09T09:19:23;1.65;;;0.70;;
32399;SDS011;45045;45.440;9.178;2022-09-09T09:21:57;3.38;;;0.70;;
32399;SDS011;45045;45.440;9.178;2022-09-09T09:29:49;2.28;;;0.57;;
32399;SDS011;45045;45.440;9.178;2022-09-09T09:32:18;1.52;;;0.50;;
32399;SDS011;45045;45.440;9.178;2022-09-09T09:34:55;2.85;;;0.50;;
32399;SDS011;45045;45.440;9.178;2022-09-09T09:37:30;3.78;;;0.60;;
32399;SDS011;45045;45.440;9.178;2022-09-09T09:40:13;4.72;;;0.50;;
32399;SDS011;45045;45.440;9.178;2022-09-09T09:42:54;3.00;;;0.50;;
32399;SDS011;45045;45.440;9.178;2022-09-09T09:45:27;4.60;;;0.43;;
32399;SDS011;45045;45.440;9.178;2022-09-09T09:48:04;3.58;;;0.63;;
32399;SDS011;45045;45.440;9.178;2022-09-09T09:50:32;2.88;;;0.52;;
32399;SDS011;45045;45.440;9.178;2022-09-09T09:53:04;3.58;;;0.57;;
32399;SDS011;45045;45.440;9.178;2022-09-09T09:55:46;2.53;;;0.70;;
32399;SDS011;45045;45.440;9.178;2022-09-09T09:58:17;4.38;;;0.60;;
32399;SDS011;45045;45.440;9.178;2022-09-09T10:00:50;5.32;;;0.85;;
32399;SDS011;45045;45.440;9.178;2022-09-09T10:03:28;2.65;;;0.85;;
32399;SDS011;45045;45.440;9.178;2022-09-09T10:05:55;3.42;;;0.60;;
32399;SDS011;45045;45.440;9.178;2022-09-09T10:08:23;4.22;;;0.85;;
32399;SDS011;45045;45.440;9.178;2022-09-09T10:10:59;2.10;;;0.82;;
32399;SDS011;45045;45.440;9.178;2022-09-09T10:19:12;4.32;;;1.00;;
32399;SDS011;45045;45.440;9.178;2022-09-09T10:35:20;2.88;;;0.70;;
32399;SDS011;45045;45.440;9.178;2022-09-09T10:51:54;5.30;;;1.98;;
32399;SDS011;45045;45.440;9.178;2022-09-09T10:54:26;4.97;;;1.33;;
32399;SDS011;45045;45.440;9.178;2022-09-09T10:57:24;3.03;;;1.08;;
32399;SDS011;45045;45.440;9.178;2022-09-09T10:59:58;2.40;;;0.88;;
32399;SDS011;45045;45.440;9.178;2022-09-09T11:02:30;3.15;;;0.90;;
32399;SDS011;45045;45.440;9.178;2022-09-09T11:07:45;2.85;;;0.70;;
32399;SDS011;45045;45.440;9.178;2022-09-09T11:10:34;3.47;;;0.68;;
32399;SDS011;45045;45.440;9.178;2022-09-09T11:13:05;2.97;;;1.15;;
32399;SDS011;45045;45.440;9.178;2022-09-09T11:15:44;9.23;;;1.80;;
32399;SDS011;45045;45.440;9.178;2022-09-09T11:18:17;3.53;;;0.50;;
32399;SDS011;45045;45.440;9.178;2022-09-09T11:20:47;2.90;;;0.80;;
32399;SDS011;45045;45.440;9.178;2022-09-09T11:23:20;3.17;;;0.80;;
32399;SDS011;45045;45.440;9.178;2022-09-09T11:25:58;4.75;;;0.90;;
32399;SDS011;45045;45.440;9.178;2022-09-09T11:36:43;14.70;;;4.05;;
32399;SDS011;45045;45.440;9.178;2022-09-09T11:39:41;4.93;;;1.65;;
32399;SDS011;45045;45.440;9.178;2022-09-09T11:42:20;22.80;;;2.10;;
32399;SDS011;45045;45.440;9.178;2022-09-09T11:44:49;44.67;;;5.75;;
32399;SDS011;45045;45.440;9.178;2022-09-09T11:47:28;14.68;;;2.05;;
32399;SDS011;45045;45.440;9.178;2022-09-09T11:50:06;3.97;;;0.93;;
32399;SDS011;45045;45.440;9.178;2022-09-09T11:53:03;5.43;;;0.90;;
32399;SDS011;45045;45.440;9.178;2022-09-09T11:55:39;3.45;;;0.90;;
32399;SDS011;45045;45.440;9.178;2022-09-09T12:00:48;4.57;;;1.13;;
32399;SDS011;45045;45.440;9.178;2022-09-09T12:06:17;5.13;;;1.10;;
32399;SDS011;45045;45.440;9.178;2022-09-09T12:08:50;6.43;;;1.13;;
32399;SDS011;45045;45.440;9.178;2022-09-09T12:11:24;6.40;;;1.98;;
32399;SDS011;45045;45.440;9.178;2022-09-09T12:13:55;6.78;;;3.53;;
32399;SDS011;45045;45.440;9.178;2022-09-09T12:16:32;3.75;;;1.02;;
32399;SDS011;45045;45.440;9.178;2022-09-09T12:19:13;4.85;;;1.13;;
32399;SDS011;45045;45.440;9.178;2022-09-09T12:24:11;2.65;;;1.10;;
32399;SDS011;45045;45.440;9.178;2022-09-09T12:29:47;12.40;;;2.08;;
32399;SDS011;45045;45.440;9.178;2022-09-09T12:32:32;4.47;;;0.90;;
32399;SDS011;45045;45.440;9.178;2022-09-09T12:37:55;4.97;;;1.40;;
32399;SDS011;45045;45.440;9.178;2022-09-09T12:40:24;2.90;;;1.13;;
32399;SDS011;45045;45.440;9.178;2022-09-09T12:42:56;3.83;;;1.10;;
32399;SDS011;45045;45.440;9.178;2022-09-09T12:45:24;3.55;;;1.02;;
32399;SDS011;45045;45.440;9.178;2022-09-09T12:50:23;4.35;;;1.58;;
32399;SDS011;45045;45.440;9.178;2022-09-09T12:52:51;11.55;;;4.80;;
32399;SDS011;45045;45.440;9.178;2022-09-09T12:55:32;3.97;;;1.13;;
32399;SDS011;45045;45.440;9.178;2022-09-09T12:58:01;6.53;;;1.40;;
32399;SDS011;45045;45.440;9.178;2022-09-09T13:00:32;5.90;;;1.35;;
32399;SDS011;45045;45.440;9.178;2022-09-09T13:02:59;4.30;;;1.17;;
32399;SDS011;45045;45.440;9.178;2022-09-09T13:05:28;2.67;;;0.95;;
32399;SDS011;45045;45.440;9.178;2022-09-09T13:08:10;2.83;;;0.93;;
32399;SDS011;45045;45.440;9.178;2022-09-09T13:10:47;6.55;;;1.20;;
32399;SDS011;45045;45.440;9.178;2022-09-09T13:13:15;4.82;;;1.17;;
32399;SDS011;45045;45.440;9.178;2022-09-09T13:16:18;21.35;;;3.33;;
32399;SDS011;45045;45.440;9.178;2022-09-09T13:18:44;12.93;;;3.30;;
32399;SDS011;45045;45.440;9.178;2022-09-09T13:21:11;5.03;;;1.10;;
32399;SDS011;45045;45.440;9.178;2022-09-09T13:23:37;20.15;;;4.78;;
32399;SDS011;45045;45.440;9.178;2022-09-09T13:26:06;6.57;;;1.40;;
32399;SDS011;45045;45.440;9.178;2022-09-09T13:28:46;3.00;;;1.00;;
32399;SDS011;45045;45.440;9.178;2022-09-09T13:31:29;6.70;;;1.10;;
32399;SDS011;45045;45.440;9.178;2022-09-09T13:33:57;9.45;;;3.95;;
32399;SDS011;45045;45.440;9.178;2022-09-09T13:36:31;6.65;;;1.65;;
32399;SDS011;45045;45.440;9.178;2022-09-09T13:39:00;6.95;;;1.40;;
32399;SDS011;45045;45.440;9.178;2022-09-09T13:41:29;4.85;;;1.17;;
32399;SDS011;45045;45.440;9.178;2022-09-09T13:44:01;5.07;;;1.17;;
32399;SDS011;45045;45.440;9.178;2022-09-09T13:46:35;4.47;;;1.10;;
32399;SDS011;45045;45.440;9.178;2022-09-09T13:49:17;18.90;;;2.25;;
32399;SDS011;45045;45.440;9.178;2022-09-09T13:51:48;5.40;;;1.80;;
32399;SDS011;45045;45.440;9.178;2022-09-09T13:54:17;2.85;;;1.00;;
32399;SDS011;45045;45.440;9.178;2022-09-09T13:56:44;4.45;;;1.20;;
32399;SDS011;45045;45.440;9.178;2022-09-09T13:59:11;9.85;;;1.40;;
32399;SDS011;45045;45.440;9.178;2022-09-09T14:01:41;5.05;;;1.30;;
32399;SDS011;45045;45.440;9.178;2022-09-09T14:04:07;5.45;;;1.25;;
32399;SDS011;45045;45.440;9.178;2022-09-09T14:06:36;3.13;;;1.38;;
32399;SDS011;45045;45.440;9.178;2022-09-09T14:09:08;3.72;;;1.35;;
32399;SDS011;45045;45.440;9.178;2022-09-09T14:11:37;3.10;;;1.10;;
32399;SDS011;45045;45.440;9.178;2022-09-09T14:14:03;3.60;;;1.08;;
32399;SDS011;45045;45.440;9.178;2022-09-09T14:16:29;5.57;;;1.30;;
32399;SDS011;45045;45.440;9.178;2022-09-09T14:18:55;7.20;;;1.65;;
32399;SDS011;45045;45.440;9.178;2022-09-09T14:21:24;3.15;;;0.90;;
32399;SDS011;45045;45.440;9.178;2022-09-09T14:23:51;3.85;;;1.10;;
32399;SDS011;45045;45.440;9.178;2022-09-09T14:26:20;4.82;;;1.10;;
32399;SDS011;45045;45.440;9.178;2022-09-09T14:28:50;2.65;;;0.90;;
32399;SDS011;45045;45.440;9.178;2022-09-09T14:31:16;5.07;;;1.08;;
32399;SDS011;45045;45.440;9.178;2022-09-09T14:33:43;7.20;;;1.50;;
32399;SDS011;45045;45.440;9.178;2022-09-09T14:36:09;3.17;;;0.95;;
32399;SDS011;45045;45.440;9.178;2022-09-09T14:38:36;4.25;;;1.30;;
32399;SDS011;45045;45.440;9.178;2022-09-09T14:41:06;5.20;;;1.10;;
32399;SDS011;45045;45.440;9.178;2022-09-09T14:43:39;3.25;;;0.95;;
32399;SDS011;45045;45.440;9.178;2022-09-09T14:46:08;3.13;;;0.90;;
32399;SDS011;45045;45.440;9.178;2022-09-09T14:48:35;8.68;;;1.55;;
32399;SDS011;45045;45.440;9.178;2022-09-09T14:51:05;5.93;;;1.15;;
32399;SDS011;45045;45.440;9.178;2022-09-09T14:53:35;6.55;;;1.63;;
32399;SDS011;45045;45.440;9.178;2022-09-09T14:56:08;5.07;;;1.00;;
32399;SDS011;45045;45.440;9.178;2022-09-09T14:58:35;5.75;;;1.33;;
32399;SDS011;45045;45.440;9.178;2022-09-09T15:01:02;6.18;;;2.67;;
32399;SDS011;45045;45.440;9.178;2022-09-09T15:03:32;4.60;;;1.30;;
32399;SDS011;45045;45.440;9.178;2022-09-09T15:06:04;6.00;;;1.40;;
32399;SDS011;45045;45.440;9.178;2022-09-09T15:08:33;6.65;;;1.80;;
32399;SDS011;45045;45.440;9.178;2022-09-09T15:11:01;6.13;;;1.60;;
32399;SDS011;45045;45.440;9.178;2022-09-09T15:13:28;4.65;;;1.30;;
32399;SDS011;45045;45.440;9.178;2022-09-09T15:15:53;5.28;;;1.08;;
32399;SDS011;45045;45.440;9.178;2022-09-09T15:18:20;4.03;;;1.30;;
32399;SDS011;45045;45.440;9.178;2022-09-09T15:20:46;2.60;;;1.17;;
32399;SDS011;45045;45.440;9.178;2022-09-09T15:23:13;3.97;;;1.30;;
32399;SDS011;45045;45.440;9.178;2022-09-09T15:25:39;6.95;;;1.40;;
32399;SDS011;45045;45.440;9.178;2022-09-09T15:28:24;5.40;;;1.00;;
32399;SDS011;45045;45.440;9.178;2022-09-09T15:30:51;3.05;;;0.90;;
32399;SDS011;45045;45.440;9.178;2022-09-09T15:33:22;4.72;;;1.40;;
32399;SDS011;45045;45.440;9.178;2022-09-09T15:35:48;5.20;;;1.23;;
32399;SDS011;45045;45.440;9.178;2022-09-09T15:38:14;4.25;;;1.20;;
32399;SDS011;45045;45.440;9.178;2022-09-09T15:40:42;3.70;;;1.30;;
32399;SDS011;45045;45.440;9.178;2022-09-09T15:43:08;3.92;;;1.40;;
32399;SDS011;45045;45.440;9.178;2022-09-09T15:45:35;3.53;;;1.15;;
32399;SDS011;45045;45.440;9.178;2022-09-09T15:48:01;2.50;;;1.08;;
32399;SDS011;45045;45.440;9.178;2022-09-09T15:50:28;3.35;;;0.90;;
32399;SDS011;45045;45.440;9.178;2022-09-09T15:52:56;3.30;;;1.15;;
32399;SDS011;45045;45.440;9.178;2022-09-09T15:55:22;4.50;;;1.45;;
32399;SDS011;45045;45.440;9.178;2022-09-09T15:57:50;5.10;;;2.42;;
32399;SDS011;45045;45.440;9.178;2022-09-09T16:00:20;3.60;;;1.25;;
32399;SDS011;45045;45.440;9.178;2022-09-09T16:02:49;3.65;;;1.40;;
32399;SDS011;45045;45.440;9.178;2022-09-09T16:05:15;2.55;;;1.33;;
32399;SDS011;45045;45.440;9.178;2022-09-09T16:07:41;3.30;;;1.00;;
32399;SDS011;45045;45.440;9.178;2022-09-09T16:10:07;4.65;;;0.98;;
32399;SDS011;45045;45.440;9.178;2022-09-09T16:12:33;7.47;;;1.42;;
32399;SDS011;45045;45.440;9.178;2022-09-09T16:14:59;6.50;;;1.50;;
32399;SDS011;45045;45.440;9.178;2022-09-09T16:17:26;4.95;;;2.00;;
32399;SDS011;45045;45.440;9.178;2022-09-09T16:19:52;4.28;;;1.20;;
32399;SDS011;45045;45.440;9.178;2022-09-09T16:22:19;6.00;;;1.10;;
32399;SDS011;45045;45.440;9.178;2022-09-09T16:24:45;3.72;;;1.10;;
32399;SDS011;45045;45.440;9.178;2022-09-09T16:27:10;3.38;;;1.20;;
32399;SDS011;45045;45.440;9.178;2022-09-09T16:29:36;4.82;;;1.60;;
32399;SDS011;45045;45.440;9.178;2022-09-09T16:32:02;5.45;;;1.48;;
32399;SDS011;45045;45.440;9.178;2022-09-09T16:34:27;5.28;;;1.50;;
32399;SDS011;45045;45.440;9.178;2022-09-09T16:36:53;2.75;;;1.30;;
32399;SDS011;45045;45.440;9.178;2022-09-09T16:39:19;4.32;;;1.40;;
32399;SDS011;45045;45.440;9.178;2022-09-09T16:41:46;4.15;;;1.60;;
32399;SDS011;45045;45.440;9.178;2022-09-09T16:44:13;4.63;;;1.40;;
32399;SDS011;45045;45.440;9.178;2022-09-09T16:46:44;5.63;;;1.30;;
32399;SDS011;45045;45.440;9.178;2022-09-09T16:49:13;4.15;;;1.63;;
32399;SDS011;45045;45.440;9.178;2022-09-09T16:51:41;3.20;;;1.30;;
32399;SDS011;45045;45.440;9.178;2022-09-09T16:54:12;4.07;;;1.35;;
32399;SDS011;45045;45.440;9.178;2022-09-09T16:56:40;3.53;;;1.35;;
32399;SDS011;45045;45.440;9.178;2022-09-09T16:59:09;3.60;;;1.27;;
32399;SDS011;45045;45.440;9.178;2022-09-09T17:01:37;4.72;;;1.23;;
32399;SDS011;45045;45.440;9.178;2022-09-09T17:04:06;3.63;;;1.50;;
32399;SDS011;45045;45.440;9.178;2022-09-09T17:06:34;4.93;;;1.48;;
32399;SDS011;45045;45.440;9.178;2022-09-09T17:09:02;2.42;;;1.27;;